DMK weather

Don Mueang International Airport
Bangkok, Bangkok Province, Thailand

Public forecast

Using degrees Celsius for public forecast. Weather courtesy of forecast.io.

Current aviation weather report (METAR) for Don Mueang International Airport

Retrieved 2019/11/14 22:30 UTC (22 minutes ago):

VTBD 142230Z 09004KT 9999 FEW030 OVC100 26/21 Q1012 NOSIG

Aviation forecast (TAF) for Don Mueang International Airport

Retrieved 2019/11/14 18:39 UTC (4 hours ago):

TAF VTBD 141700Z 1418/1524 05005KT 9000 FEW020